Empire — PD5101 — position and weather

sailwx.info

Track history (hours):
 
Tides and Currents Weather Stations Pressure Air Temp Water Temp Dewpoint Dewpoint Depression Visibility Wind Speed Wind Dir Waves Ship Positions

Empire

Last reported at 2015-Mar-27 15:33 UTC. Time now 2015-Mar-27 15:39 UTC.
Position N 51°54' E 004°20'.

Length 183 m; draft 3 m.

Type: Ship. MMSI: 244670090.

Date/timePositionNaut miles runAvg speedWind from/ knotsBaromVisibWave heightAir tempDewpointWater temp
2015-Mar-27 15:33N 51°54' E 004°20'7 6.9
2015-Mar-27 14:33N 51°54' E 004°31'9 8.9
2015-Mar-27 13:33N 51°55' E 004°46'4 3.7
2015-Mar-27 12:33N 51°56' E 004°51'0 0.0
2015-Mar-27 11:33N 51°56' E 004°51'0 0.0
2015-Mar-27 10:32N 51°56' E 004°51'0 0.0
2015-Mar-27 09:33N 51°56' E 004°51'0 0.2
2015-Mar-27 08:33N 51°56' E 004°51'6 6.1
2015-Mar-27 07:33N 51°54' E 004°42'7 6.9
2015-Mar-27 06:33N 51°55' E 004°31'7 6.7
2015-Mar-27 05:33N 51°54' E 004°20'0 0.0
2015-Mar-27 04:33N 51°54' E 004°20'0 0.0
2015-Mar-27 03:33N 51°54' E 004°20'0 0.0
2015-Mar-27 02:33N 51°54' E 004°20'0 0.0
2015-Mar-27 01:33N 51°54' E 004°20'0 0.0
2015-Mar-27 00:33N 51°54' E 004°20'0 0.0
2015-Mar-26 23:33N 51°54' E 004°20'0 0.0
2015-Mar-26 22:33N 51°54' E 004°20'0 0.0
2015-Mar-26 21:33N 51°54' E 004°20'0 0.0
2015-Mar-26 20:33N 51°54' E 004°20'0 0.5
2015-Mar-26 19:33N 51°54' E 004°21'6 6.1
2015-Mar-26 18:33N 51°55' E 004°30'4 3.9
2015-Mar-26 17:33N 51°54' E 004°36'5 5.4
2015-Mar-26 16:34N 51°49' E 004°42'7 7.1
2015-Mar-26 15:33N 51°49' E 004°53'8 7.6
2015-Mar-26 14:33N 51°50' E 005°06'8 7.9
2015-Mar-26 13:33N 51°49' E 005°19'6 6.3
2015-Mar-26 12:33N 51°53' E 005°27'9 8.4
2015-Mar-26 11:30N 51°54' E 005°41'15 7.1
2015-Mar-26 09:22N 51°51' E 006°05'7 8.4
2015-Mar-26 08:33N 51°49' E 006°16'22 6.6
2015-Mar-26 05:17N 51°34' E 006°41'12 6.1
2015-Mar-26 03:15N 51°22' E 006°39'5 6.9
2015-Mar-26 02:28N 51°17' E 006°42'5 4.9
2015-Mar-26 01:33N 51°12' E 006°44'5 5.4
2015-Mar-26 00:33N 51°10' E 006°51'15 6.8
2015-Mar-25 22:22N 50°55' E 006°58'109 5.8
2015-Mar-25 03:32N 49°23' E 008°30'6 6.1
2015-Mar-25 02:33N 49°17' E 008°29'7 7.4
2015-Mar-25 01:33N 49°11' E 008°23'8 8.1
2015-Mar-25 00:33N 49°03' E 008°19'9 8.6
2015-Mar-24 23:33N 48°56' E 008°11'7 6.7
2015-Mar-24 22:31N 48°50' E 008°07'5 5.0
2015-Mar-24 21:29N 48°46' E 008°01'6 6.5
2015-Mar-24 20:33N 48°42' E 007°55'23517.9
2015-Mar-24 07:27N 51°54' E 004°23'  
2015-Mar-21 11:31N 48°42' E 007°56'7 6.4
2015-Mar-21 10:24N 48°47' E 008°02'5 4.3
2015-Mar-21 09:18N 48°51' E 008°07'3 3.2
2015-Mar-21 08:18N 48°54' E 008°09'3 3.1
2015-Mar-21 07:28N 48°56' E 008°11'3 2.9
2015-Mar-21 06:33N 48°58' E 008°14'3 3.2
2015-Mar-21 05:33N 48°60' E 008°17'4 3.6
2015-Mar-21 04:33N 49°03' E 008°19'3 3.5
2015-Mar-21 03:33N 49°06' E 008°22'3 3.5
2015-Mar-21 02:33N 49°10' E 008°22'3 3.4
2015-Mar-21 01:33N 49°13' E 008°23'3 3.5
2015-Mar-21 00:33N 49°16' E 008°26'3 2.9
2015-Mar-20 23:33N 49°18' E 008°29'3 2.8
2015-Mar-20 22:30N 49°21' E 008°29'109 3.6
2015-Mar-19 16:30N 50°54' E 006°59'16 4.1
2015-Mar-19 12:28N 51°10' E 006°51'6 3.0
2015-Mar-19 10:33N 51°13' E 006°44'2 2.4
2015-Mar-19 09:33N 51°15' E 006°45'19 3.5
2015-Mar-19 04:03N 51°34' E 006°41'19 4.1
2015-Mar-18 23:32N 51°47' E 006°19'26 5.1
2015-Mar-18 18:30N 51°54' E 005°39'6 6.2
2015-Mar-18 17:33N 51°53' E 005°30'6 5.8
2015-Mar-18 16:33N 51°49' E 005°23'5 5.1
2015-Mar-18 15:33N 51°49' E 005°15'6 6.5
2015-Mar-18 14:33N 51°49' E 005°04'4 3.6
2015-Mar-18 13:33N 51°50' E 004°58'4 4.2
2015-Mar-18 12:33N 51°49' E 004°52'8 7.8
2015-Mar-18 11:33N 51°49' E 004°39'1 1.0
2015-Mar-18 10:34N 51°48' E 004°38'0 0.4
2015-Mar-18 09:33N 51°48' E 004°38'0 0.0
2015-Mar-18 08:34N 51°48' E 004°38'0 0.0
2015-Mar-18 07:33N 51°48' E 004°38'0 0.0
2015-Mar-18 06:34N 51°48' E 004°38'0 0.0
2015-Mar-18 05:33N 51°48' E 004°38'0 0.2
2015-Mar-18 04:34N 51°48' E 004°38'0 0.2
2015-Mar-18 03:33N 51°48' E 004°38'5 4.8
2015-Mar-18 02:33N 51°43' E 004°37'8 8.0
2015-Mar-18 01:33N 51°41' E 004°24'4 4.3
2015-Mar-18 00:31N 51°39' E 004°18'6 6.6
2015-Mar-17 23:33N 51°33' E 004°14'6 6.4
2015-Mar-17 22:32N 51°27' E 004°14'1 0.7
2015-Mar-17 21:33N 51°26' E 004°14'0 0.0
2015-Mar-17 20:33N 51°26' E 004°14'0 0.0
2015-Mar-17 19:27N 51°26' E 004°14'0 0.0
2015-Mar-17 18:32N 51°26' E 004°14'1 0.8
2015-Mar-17 17:31N 51°25' E 004°14'9 8.9
2015-Mar-17 16:33N 51°18' E 004°20'  
Track history (hours):
 
Tides and Currents Weather Stations Pressure Air Temp Water Temp Dewpoint Dewpoint Depression Visibility Wind Speed Wind Dir Waves Ship Positions

Empire

Last reported at 2015-Mar-27 15:33 UTC. Time now 2015-Mar-27 15:39 UTC.
Position N 51°54' E 004°20'.

Length 183 m; draft 3 m.

Type: Ship. MMSI: 244670090.

Date/timePositionNaut miles runAvg speedWind from/ knotsBaromVisibWave heightAir tempDewpointWater temp
2015-Mar-27 15:33N 51°54' E 004°20'7 6.9
2015-Mar-27 14:33N 51°54' E 004°31'9 8.9
2015-Mar-27 13:33N 51°55' E 004°46'4 3.7
2015-Mar-27 12:33N 51°56' E 004°51'0 0.0
2015-Mar-27 11:33N 51°56' E 004°51'0 0.0
2015-Mar-27 10:32N 51°56' E 004°51'0 0.0
2015-Mar-27 09:33N 51°56' E 004°51'0 0.2
2015-Mar-27 08:33N 51°56' E 004°51'6 6.1
2015-Mar-27 07:33N 51°54' E 004°42'7 6.9
2015-Mar-27 06:33N 51°55' E 004°31'7 6.7
2015-Mar-27 05:33N 51°54' E 004°20'0 0.0
2015-Mar-27 04:33N 51°54' E 004°20'0 0.0
2015-Mar-27 03:33N 51°54' E 004°20'0 0.0
2015-Mar-27 02:33N 51°54' E 004°20'0 0.0
2015-Mar-27 01:33N 51°54' E 004°20'0 0.0
2015-Mar-27 00:33N 51°54' E 004°20'0 0.0
2015-Mar-26 23:33N 51°54' E 004°20'0 0.0
2015-Mar-26 22:33N 51°54' E 004°20'0 0.0
2015-Mar-26 21:33N 51°54' E 004°20'0 0.0
2015-Mar-26 20:33N 51°54' E 004°20'0 0.5
2015-Mar-26 19:33N 51°54' E 004°21'6 6.1
2015-Mar-26 18:33N 51°55' E 004°30'4 3.9
2015-Mar-26 17:33N 51°54' E 004°36'5 5.4
2015-Mar-26 16:34N 51°49' E 004°42'7 7.1
2015-Mar-26 15:33N 51°49' E 004°53'8 7.6
2015-Mar-26 14:33N 51°50' E 005°06'8 7.9
2015-Mar-26 13:33N 51°49' E 005°19'6 6.3
2015-Mar-26 12:33N 51°53' E 005°27'9 8.4
2015-Mar-26 11:30N 51°54' E 005°41'15 7.1
2015-Mar-26 09:22N 51°51' E 006°05'7 8.4
2015-Mar-26 08:33N 51°49' E 006°16'22 6.6
2015-Mar-26 05:17N 51°34' E 006°41'12 6.1
2015-Mar-26 03:15N 51°22' E 006°39'5 6.9
2015-Mar-26 02:28N 51°17' E 006°42'5 4.9
2015-Mar-26 01:33N 51°12' E 006°44'5 5.4
2015-Mar-26 00:33N 51°10' E 006°51'15 6.8
2015-Mar-25 22:22N 50°55' E 006°58'109 5.8
2015-Mar-25 03:32N 49°23' E 008°30'6 6.1
2015-Mar-25 02:33N 49°17' E 008°29'7 7.4
2015-Mar-25 01:33N 49°11' E 008°23'8 8.1
2015-Mar-25 00:33N 49°03' E 008°19'9 8.6
2015-Mar-24 23:33N 48°56' E 008°11'7 6.7
2015-Mar-24 22:31N 48°50' E 008°07'5 5.0
2015-Mar-24 21:29N 48°46' E 008°01'6 6.5
2015-Mar-24 20:33N 48°42' E 007°55'23517.9
2015-Mar-24 07:27N 51°54' E 004°23'  
2015-Mar-21 11:31N 48°42' E 007°56'7 6.4
2015-Mar-21 10:24N 48°47' E 008°02'5 4.3
2015-Mar-21 09:18N 48°51' E 008°07'3 3.2
2015-Mar-21 08:18N 48°54' E 008°09'3 3.1
2015-Mar-21 07:28N 48°56' E 008°11'3 2.9
2015-Mar-21 06:33N 48°58' E 008°14'3 3.2
2015-Mar-21 05:33N 48°60' E 008°17'4 3.6
2015-Mar-21 04:33N 49°03' E 008°19'3 3.5
2015-Mar-21 03:33N 49°06' E 008°22'3 3.5
2015-Mar-21 02:33N 49°10' E 008°22'3 3.4
2015-Mar-21 01:33N 49°13' E 008°23'3 3.5
2015-Mar-21 00:33N 49°16' E 008°26'3 2.9
2015-Mar-20 23:33N 49°18' E 008°29'3 2.8
2015-Mar-20 22:30N 49°21' E 008°29'109 3.6
2015-Mar-19 16:30N 50°54' E 006°59'16 4.1
2015-Mar-19 12:28N 51°10' E 006°51'6 3.0
2015-Mar-19 10:33N 51°13' E 006°44'2 2.4
2015-Mar-19 09:33N 51°15' E 006°45'19 3.5
2015-Mar-19 04:03N 51°34' E 006°41'19 4.1
2015-Mar-18 23:32N 51°47' E 006°19'26 5.1
2015-Mar-18 18:30N 51°54' E 005°39'6 6.2
2015-Mar-18 17:33N 51°53' E 005°30'6 5.8
2015-Mar-18 16:33N 51°49' E 005°23'5 5.1
2015-Mar-18 15:33N 51°49' E 005°15'6 6.5
2015-Mar-18 14:33N 51°49' E 005°04'4 3.6
2015-Mar-18 13:33N 51°50' E 004°58'4 4.2
2015-Mar-18 12:33N 51°49' E 004°52'8 7.8
2015-Mar-18 11:33N 51°49' E 004°39'1 1.0
2015-Mar-18 10:34N 51°48' E 004°38'0 0.4
2015-Mar-18 09:33N 51°48' E 004°38'0 0.0
2015-Mar-18 08:34N 51°48' E 004°38'0 0.0
2015-Mar-18 07:33N 51°48' E 004°38'0 0.0
2015-Mar-18 06:34N 51°48' E 004°38'0 0.0
2015-Mar-18 05:33N 51°48' E 004°38'0 0.2
2015-Mar-18 04:34N 51°48' E 004°38'0 0.2
2015-Mar-18 03:33N 51°48' E 004°38'5 4.8
2015-Mar-18 02:33N 51°43' E 004°37'8 8.0
2015-Mar-18 01:33N 51°41' E 004°24'4 4.3
2015-Mar-18 00:31N 51°39' E 004°18'6 6.6
2015-Mar-17 23:33N 51°33' E 004°14'6 6.4
2015-Mar-17 22:32N 51°27' E 004°14'1 0.7
2015-Mar-17 21:33N 51°26' E 004°14'0 0.0
2015-Mar-17 20:33N 51°26' E 004°14'0 0.0
2015-Mar-17 19:27N 51°26' E 004°14'0 0.0
2015-Mar-17 18:32N 51°26' E 004°14'1 0.8
2015-Mar-17 17:31N 51°25' E 004°14'9 8.9
2015-Mar-17 16:33N 51°18' E 004°20'  

Dump ship's entire track history